createdAt,value
2023-04-05T00:02:29.937Z,86.20
2023-04-05T00:04:58.622Z,86.80
2023-04-05T00:07:26.506Z,87.50
2023-04-05T00:09:53.821Z,87.80
2023-04-05T00:12:21.233Z,88.60
2023-04-05T00:14:48.671Z,89.50
2023-04-05T00:17:15.858Z,89.80
2023-04-05T00:19:43.301Z,90.00
2023-04-05T00:22:10.675Z,90.30
2023-04-05T00:24:43.517Z,90.50
2023-04-05T00:27:12.330Z,90.60
2023-04-05T00:29:39.448Z,91.10
2023-04-05T00:32:06.911Z,90.90
2023-04-05T00:34:34.098Z,91.10
2023-04-05T00:37:01.239Z,91.10
2023-04-05T00:39:28.542Z,91.20
2023-04-05T00:41:56.306Z,91.40
2023-04-05T00:44:23.336Z,91.40
2023-04-05T00:46:51.308Z,91.30
2023-04-05T00:49:18.935Z,91.50
2023-04-05T00:51:46.425Z,91.50
2023-04-05T00:54:14.856Z,91.60
2023-04-05T00:56:42.172Z,91.60
2023-04-05T00:59:09.598Z,91.10
2023-04-05T01:01:40.396Z,91.10
2023-04-05T01:04:08.379Z,91.30
2023-04-05T01:07:14.254Z,91.50
2023-04-05T01:10:00.258Z,91.60
2023-04-05T01:12:33.238Z,91.90
2023-04-05T01:15:01.128Z,91.70
2023-04-05T01:17:28.768Z,91.60
2023-04-05T01:20:00.511Z,91.40
2023-04-05T01:22:27.394Z,90.80
2023-04-05T01:25:19.499Z,90.40
2023-04-05T01:28:00.834Z,90.40
2023-04-05T01:30:34.928Z,90.50
2023-04-05T01:33:11.108Z,90.30
2023-04-05T01:35:59.871Z,90.20
2023-04-05T01:38:28.649Z,90.20
2023-04-05T01:40:55.932Z,90.40
2023-04-05T01:43:22.776Z,90.60
2023-04-05T01:45:49.796Z,90.90
2023-04-05T01:48:17.159Z,90.90
2023-04-05T01:50:44.289Z,90.60
2023-04-05T01:53:11.323Z,90.50
2023-04-05T01:55:38.235Z,90.40
2023-04-05T01:58:05.473Z,90.30
2023-04-05T02:00:32.712Z,90.20
2023-04-05T02:02:59.814Z,90.20
2023-04-05T02:05:27.218Z,90.10
2023-04-05T02:07:54.224Z,90.10
2023-04-05T02:10:24.613Z,90.30
2023-04-05T02:12:51.754Z,90.10
2023-04-05T02:15:18.736Z,90.00
2023-04-05T02:17:48.524Z,90.00
2023-04-05T02:20:15.677Z,90.10
2023-04-05T02:22:45.214Z,90.10
2023-04-05T02:25:13.094Z,90.20
2023-04-05T02:27:43.364Z,90.20
2023-04-05T02:30:10.632Z,90.40
2023-04-05T02:32:37.750Z,90.60
2023-04-05T02:35:05.105Z,90.90
2023-04-05T02:37:31.954Z,91.40
2023-04-05T02:39:58.914Z,91.30
2023-04-05T02:42:25.934Z,91.30
2023-04-05T02:44:53.668Z,91.40
2023-04-05T02:47:22.491Z,91.50
2023-04-05T02:49:58.430Z,91.70
2023-04-05T02:52:28.494Z,91.80
2023-04-05T02:54:55.558Z,91.90
2023-04-05T02:57:27.575Z,92.00
2023-04-05T03:00:02.622Z,92.30
2023-04-05T03:02:31.654Z,92.30
2023-04-05T03:05:02.292Z,92.10
2023-04-05T03:07:32.976Z,92.30
2023-04-05T03:10:02.605Z,92.20
2023-04-05T03:12:29.839Z,91.90
2023-04-05T03:14:57.177Z,91.70
2023-04-05T03:17:25.975Z,91.50
2023-04-05T03:20:07.468Z,91.30
2023-04-05T03:22:34.804Z,91.20
2023-04-05T03:25:02.401Z,91.10
2023-04-05T03:27:31.177Z,91.20
2023-04-05T03:30:12.231Z,91.20
2023-04-05T03:32:44.830Z,91.10
2023-04-05T03:35:25.863Z,91.20
2023-04-05T03:37:52.835Z,91.30
2023-04-05T03:40:19.709Z,91.20
2023-04-05T03:42:47.559Z,91.20
2023-04-05T03:45:15.607Z,91.20
2023-04-05T03:47:45.039Z,91.20
2023-04-05T03:50:12.206Z,91.30
2023-04-05T03:52:39.044Z,91.20
2023-04-05T03:55:06.908Z,91.40
2023-04-05T03:57:37.029Z,91.30
2023-04-05T04:00:17.467Z,91.50
2023-04-05T04:02:46.381Z,91.40
2023-04-05T04:05:18.385Z,91.60
2023-04-05T04:07:49.328Z,91.70
2023-04-05T04:10:20.065Z,91.80
2023-04-05T04:12:51.127Z,91.90
2023-04-05T04:15:20.622Z,91.90
2023-04-05T04:18:13.761Z,92.10
2023-04-05T04:21:07.079Z,92.70
2023-04-05T04:23:53.109Z,93.20
2023-04-05T04:26:43.013Z,93.20
2023-04-05T04:29:46.651Z,93.70
2023-04-05T04:32:27.084Z,93.70
2023-04-05T04:35:14.654Z,93.70
2023-04-05T04:38:05.275Z,93.90
2023-04-05T04:40:50.916Z,94.00
2023-04-05T04:43:42.981Z,93.90
2023-04-05T04:46:30.805Z,93.90
2023-04-05T04:49:13.462Z,94.10
2023-04-05T04:51:46.252Z,94.20
2023-04-05T04:54:13.278Z,93.90
2023-04-05T04:56:41.539Z,93.40
2023-04-05T04:59:08.329Z,93.30
2023-04-05T05:01:35.437Z,93.20
2023-04-05T05:04:04.168Z,92.50
2023-04-05T05:06:34.786Z,92.20
2023-04-05T05:09:01.993Z,92.10
2023-04-05T05:11:32.190Z,91.90
2023-04-05T05:13:59.583Z,91.60
2023-04-05T05:16:28.401Z,91.50
2023-04-05T05:18:55.787Z,91.40
2023-04-05T05:21:26.721Z,91.10
2023-04-05T05:23:57.372Z,91.10
2023-04-05T05:26:24.309Z,91.00
2023-04-05T05:28:51.348Z,90.90
2023-04-05T05:31:19.596Z,90.80
2023-04-05T05:33:49.562Z,90.70
2023-04-05T05:36:16.519Z,90.50
2023-04-05T05:38:43.770Z,90.20
2023-04-05T05:41:10.793Z,89.80
2023-04-05T05:43:37.611Z,88.60
2023-04-05T05:46:04.600Z,87.60
2023-04-05T05:48:31.480Z,86.70
2023-04-05T05:51:01.822Z,86.20
2023-04-05T05:53:29.286Z,85.50
2023-04-05T05:55:56.714Z,85.30
2023-04-05T05:58:23.778Z,84.80
2023-04-05T06:00:51.368Z,84.50
2023-04-05T06:03:19.479Z,83.90
2023-04-05T06:05:53.951Z,83.50
2023-04-05T06:08:20.943Z,83.10
2023-04-05T06:10:49.428Z,82.50
2023-04-05T06:13:16.965Z,81.50
2023-04-05T06:15:44.094Z,81.00
2023-04-05T06:18:11.005Z,80.30
2023-04-05T06:20:40.738Z,79.40
2023-04-05T06:23:07.858Z,78.50
2023-04-05T06:25:34.909Z,77.10
2023-04-05T06:28:04.384Z,75.70
2023-04-05T06:30:32.902Z,74.30
2023-04-05T06:33:00.347Z,73.60
2023-04-05T06:35:27.306Z,72.70
2023-04-05T06:37:54.470Z,72.80
2023-04-05T06:40:21.377Z,72.00
2023-04-05T06:42:48.289Z,71.50
2023-04-05T06:45:20.917Z,71.00
2023-04-05T06:47:48.959Z,70.90
2023-04-05T06:50:15.793Z,70.90
2023-04-05T06:52:42.718Z,71.00
2023-04-05T06:55:09.819Z,70.10
2023-04-05T06:57:36.883Z,69.30
2023-04-05T07:00:09.883Z,67.90
2023-04-05T07:02:36.926Z,67.70
2023-04-05T07:05:05.939Z,68.00
2023-04-05T07:07:33.444Z,66.80
2023-04-05T07:10:00.554Z,66.20
2023-04-05T07:12:27.557Z,65.60
2023-04-05T07:14:54.505Z,63.60
2023-04-05T07:17:21.864Z,62.70
2023-04-05T07:19:48.729Z,62.30
2023-04-05T07:22:16.087Z,62.00
2023-04-05T07:24:46.081Z,61.20
2023-04-05T07:27:13.486Z,60.50
2023-04-05T07:29:44.134Z,60.10
2023-04-05T07:32:11.896Z,59.70
2023-04-05T07:34:38.820Z,58.90
2023-04-05T07:37:06.639Z,57.40
2023-04-05T07:39:33.870Z,57.30
2023-04-05T07:42:00.960Z,57.30
2023-04-05T07:44:27.950Z,57.40
2023-04-05T07:46:55.083Z,56.90
2023-04-05T07:49:28.367Z,56.90
2023-04-05T07:51:56.580Z,56.60
2023-04-05T07:54:24.139Z,56.00
2023-04-05T07:56:52.197Z,56.30
2023-04-05T07:59:19.272Z,55.10
2023-04-05T08:01:46.288Z,54.70
2023-04-05T08:04:13.301Z,54.90
2023-04-05T08:06:40.506Z,54.20
2023-04-05T08:09:09.101Z,54.20
2023-04-05T08:11:36.030Z,53.90
2023-04-05T08:14:02.978Z,52.70
2023-04-05T08:16:30.004Z,53.10
2023-04-05T08:18:57.246Z,52.60
2023-04-05T08:21:24.554Z,52.30
2023-04-05T08:23:51.485Z,52.60
2023-04-05T08:26:18.810Z,52.70
2023-04-05T08:28:45.924Z,52.20
2023-04-05T08:31:13.863Z,52.20
2023-04-05T08:33:40.920Z,52.70
2023-04-05T08:36:09.981Z,52.10
2023-04-05T08:38:37.034Z,51.70
2023-04-05T08:41:24.417Z,51.10
2023-04-05T08:44:05.803Z,51.40
2023-04-05T08:46:35.315Z,50.90
2023-04-05T08:49:11.583Z,50.60
2023-04-05T08:51:41.725Z,51.30
2023-04-05T08:54:08.610Z,51.20
2023-04-05T08:56:36.516Z,50.70
2023-04-05T08:59:08.353Z,50.50
2023-04-05T09:01:42.078Z,50.50
2023-04-05T09:04:32.029Z,50.70
2023-04-05T09:07:02.499Z,51.00
2023-04-05T09:09:34.928Z,50.10
2023-04-05T09:12:04.232Z,50.20
2023-04-05T09:14:33.596Z,49.90
2023-04-05T09:17:03.874Z,50.10
2023-04-05T09:19:30.918Z,50.00
2023-04-05T09:22:08.209Z,49.60
2023-04-05T09:24:44.230Z,49.70
2023-04-05T09:27:16.967Z,49.00
2023-04-05T09:29:48.240Z,48.30
2023-04-05T09:32:18.356Z,49.00
2023-04-05T09:34:45.940Z,49.30
2023-04-05T09:37:21.480Z,48.60
2023-04-05T09:39:50.848Z,47.30
2023-04-05T09:42:22.834Z,47.70
2023-04-05T09:45:04.902Z,47.40
2023-04-05T09:47:42.207Z,48.20
2023-04-05T09:50:21.034Z,47.70
2023-04-05T09:52:49.258Z,47.70
2023-04-05T09:55:26.000Z,47.50
2023-04-05T09:57:52.899Z,46.20
2023-04-05T10:00:21.685Z,48.30
2023-04-05T10:02:53.557Z,47.20
2023-04-05T10:05:24.608Z,45.80
2023-04-05T10:07:52.451Z,46.40
2023-04-05T10:10:21.872Z,46.00
2023-04-05T10:12:50.342Z,45.80
2023-04-05T10:15:18.569Z,46.20
2023-04-05T10:18:07.786Z,46.30
2023-04-05T10:20:40.019Z,44.40
2023-04-05T10:23:09.345Z,44.50
2023-04-05T10:25:53.076Z,44.40
2023-04-05T10:28:37.572Z,44.20
2023-04-05T10:31:38.935Z,44.00
2023-04-05T10:34:32.438Z,44.00
2023-04-05T10:37:02.196Z,43.90
2023-04-05T10:39:40.736Z,43.70
2023-04-05T10:42:15.650Z,43.90
2023-04-05T10:44:45.972Z,43.80
2023-04-05T10:47:17.357Z,44.50
2023-04-05T10:49:48.684Z,43.90
2023-04-05T10:52:17.757Z,44.00
2023-04-05T10:54:45.122Z,43.40
2023-04-05T10:57:13.450Z,44.00
2023-04-05T10:59:43.795Z,43.80
2023-04-05T11:02:11.812Z,43.60
2023-04-05T11:04:42.367Z,43.50
2023-04-05T11:07:17.561Z,43.90
2023-04-05T11:10:01.318Z,43.60
2023-04-05T11:12:46.508Z,43.50
2023-04-05T11:15:32.403Z,43.20
2023-04-05T11:18:17.294Z,42.60
2023-04-05T11:21:05.261Z,43.30
2023-04-05T11:23:32.201Z,42.50
2023-04-05T11:26:06.480Z,42.20
2023-04-05T11:28:39.435Z,42.80
2023-04-05T11:31:20.541Z,41.90
2023-04-05T11:33:55.379Z,41.90
2023-04-05T11:36:33.832Z,42.00
2023-04-05T11:39:19.106Z,41.80
2023-04-05T11:41:55.364Z,41.60
2023-04-05T11:44:26.716Z,41.60
2023-04-05T11:46:54.926Z,42.10
2023-04-05T11:49:24.467Z,41.80
2023-04-05T11:51:52.824Z,41.20
2023-04-05T11:54:35.606Z,40.90
2023-04-05T11:57:03.746Z,41.30
2023-04-05T11:59:36.109Z,41.00
2023-04-05T12:02:08.279Z,42.20
2023-04-05T12:04:58.243Z,41.30
2023-04-05T12:07:29.590Z,40.90
2023-04-05T12:10:08.865Z,41.20
2023-04-05T12:12:41.028Z,40.70
2023-04-05T12:15:10.967Z,39.50
2023-04-05T12:17:46.301Z,40.20
2023-04-05T12:20:16.056Z,39.10
2023-04-05T12:22:45.475Z,40.30
2023-04-05T12:25:13.184Z,40.50
2023-04-05T12:27:40.954Z,40.10
2023-04-05T12:30:08.896Z,39.70
2023-04-05T12:32:53.179Z,40.30
2023-04-05T12:35:24.422Z,40.50
2023-04-05T12:37:52.216Z,40.40
2023-04-05T12:40:23.597Z,40.70
2023-04-05T12:42:50.702Z,41.40
2023-04-05T12:45:20.934Z,40.30
2023-04-05T12:47:48.898Z,40.20
2023-04-05T12:50:17.518Z,40.20
2023-04-05T12:53:21.157Z,39.90
2023-04-05T12:55:52.891Z,40.30
2023-04-05T12:58:24.135Z,40.00
2023-04-05T13:00:51.120Z,42.10
2023-04-05T13:03:23.821Z,40.50
2023-04-05T13:05:51.032Z,39.60
2023-04-05T13:08:21.644Z,40.00
2023-04-05T13:10:49.704Z,39.40
2023-04-05T13:13:22.942Z,40.00
2023-04-05T13:15:52.056Z,41.40
2023-04-05T13:18:19.518Z,39.30
2023-04-05T13:20:46.454Z,39.60
2023-04-05T13:23:13.547Z,39.20
2023-04-05T13:25:42.297Z,40.70
2023-04-05T13:28:10.010Z,42.80
2023-04-05T13:30:36.954Z,41.00
2023-04-05T13:33:06.755Z,39.40
2023-04-05T13:35:33.951Z,40.10
2023-04-05T13:38:04.210Z,39.80
2023-04-05T13:40:32.206Z,38.50
2023-04-05T13:42:59.512Z,39.00
2023-04-05T13:45:27.607Z,38.80
2023-04-05T13:47:54.740Z,39.60
2023-04-05T13:50:21.670Z,38.90
2023-04-05T13:52:48.555Z,38.90
2023-04-05T13:55:15.684Z,40.50
2023-04-05T13:57:42.751Z,40.60
2023-04-05T14:00:10.270Z,39.70
2023-04-05T14:02:40.486Z,38.90
2023-04-05T14:05:08.598Z,38.10
2023-04-05T14:07:36.051Z,37.90
2023-04-05T14:10:02.987Z,37.90
2023-04-05T14:12:31.558Z,38.00
2023-04-05T14:15:00.264Z,38.80
2023-04-05T14:17:28.264Z,39.00
2023-04-05T14:19:55.096Z,39.10
2023-04-05T14:22:22.325Z,39.00
2023-04-05T14:24:49.241Z,39.60
2023-04-05T14:27:16.150Z,40.00
2023-04-05T14:29:45.604Z,38.90
2023-04-05T14:32:12.611Z,38.90
2023-04-05T14:34:39.682Z,38.80
2023-04-05T14:37:06.781Z,39.10
2023-04-05T14:39:33.756Z,38.80
2023-04-05T14:42:00.961Z,38.80
2023-04-05T14:44:28.014Z,41.80
2023-04-05T14:46:54.856Z,40.90
2023-04-05T14:49:21.784Z,40.50
2023-04-05T14:51:48.834Z,38.20
2023-04-05T14:54:15.958Z,40.40
2023-04-05T14:56:43.017Z,38.60
2023-04-05T14:59:09.824Z,39.50
2023-04-05T15:01:37.280Z,38.00
2023-04-05T15:04:04.359Z,38.10
2023-04-05T15:06:31.351Z,38.30
2023-04-05T15:08:58.294Z,38.50
2023-04-05T15:11:25.458Z,38.50
2023-04-05T15:13:52.278Z,39.20
2023-04-05T15:16:19.324Z,38.80
2023-04-05T15:18:47.586Z,39.00
2023-04-05T15:21:14.410Z,38.90
2023-04-05T15:23:41.369Z,39.10
2023-04-05T15:26:08.256Z,38.60
2023-04-05T15:28:35.142Z,39.10
2023-04-05T15:31:02.136Z,39.10
2023-04-05T15:33:29.140Z,38.60
2023-04-05T15:35:56.155Z,38.70
2023-04-05T15:38:23.449Z,39.20
2023-04-05T15:40:52.502Z,39.00
2023-04-05T15:43:20.812Z,40.00
2023-04-05T15:45:47.686Z,39.80
2023-04-05T15:48:14.697Z,40.40
2023-04-05T15:50:41.993Z,40.20
2023-04-05T15:53:09.380Z,40.50
2023-04-05T15:55:36.266Z,40.40
2023-04-05T15:58:03.461Z,40.80
2023-04-05T16:00:30.438Z,40.90
2023-04-05T16:03:00.748Z,41.10
2023-04-05T16:05:28.059Z,40.80
2023-04-05T16:07:55.863Z,40.70
2023-04-05T16:10:22.891Z,41.20
2023-04-05T16:12:49.890Z,41.20
2023-04-05T16:15:16.769Z,40.90
2023-04-05T16:17:43.762Z,40.80
2023-04-05T16:20:11.133Z,41.00
2023-04-05T16:22:38.181Z,41.20
2023-04-05T16:25:05.621Z,41.80
2023-04-05T16:27:33.796Z,41.90
2023-04-05T16:30:00.994Z,41.70
2023-04-05T16:32:28.106Z,41.60
2023-04-05T16:34:54.938Z,41.50
2023-04-05T16:37:21.975Z,41.80
2023-04-05T16:39:48.832Z,41.90
2023-04-05T16:42:15.847Z,41.80
2023-04-05T16:44:43.095Z,42.30
2023-04-05T16:47:10.044Z,41.90
2023-04-05T16:49:37.206Z,42.60
2023-04-05T16:52:04.071Z,42.60
2023-04-05T16:54:31.603Z,42.80
2023-04-05T16:56:59.160Z,43.30
2023-04-05T16:59:26.247Z,43.30
2023-04-05T17:01:53.315Z,43.40
2023-04-05T17:04:20.258Z,43.70
2023-04-05T17:06:47.197Z,43.90
2023-04-05T17:09:14.156Z,43.90
2023-04-05T17:11:41.097Z,43.70
2023-04-05T17:14:08.004Z,44.10
2023-04-05T17:16:35.099Z,44.20
2023-04-05T17:19:02.283Z,44.20
2023-04-05T17:21:29.364Z,44.10
2023-04-05T17:23:56.430Z,44.10
2023-04-05T17:26:23.982Z,44.00
2023-04-05T17:28:50.882Z,44.20
2023-04-05T17:31:19.082Z,44.20
2023-04-05T17:33:48.374Z,44.20
2023-04-05T17:36:16.927Z,44.60
2023-04-05T17:38:44.599Z,44.80
2023-04-05T17:41:11.780Z,45.10
2023-04-05T17:43:38.895Z,45.60
2023-04-05T17:46:05.793Z,45.70
2023-04-05T17:48:33.135Z,45.80
2023-04-05T17:51:05.402Z,46.20
2023-04-05T17:53:32.270Z,46.40
2023-04-05T17:56:00.261Z,46.80
2023-04-05T17:58:29.709Z,47.10
2023-04-05T18:00:56.907Z,47.70
2023-04-05T18:03:24.302Z,47.90
2023-04-05T18:05:52.657Z,48.00
2023-04-05T18:08:21.081Z,48.30
2023-04-05T18:10:48.235Z,48.90
2023-04-05T18:13:15.863Z,48.90
2023-04-05T18:15:42.787Z,49.50
2023-04-05T18:18:09.683Z,50.10
2023-04-05T18:20:36.490Z,50.70
2023-04-05T18:23:03.533Z,51.00
2023-04-05T18:25:30.407Z,51.60
2023-04-05T18:27:57.212Z,52.80
2023-04-05T18:30:24.229Z,53.10
2023-04-05T18:32:51.154Z,53.00
2023-04-05T18:35:18.217Z,53.20
2023-04-05T18:37:45.039Z,53.40
2023-04-05T18:40:12.101Z,53.30
2023-04-05T18:42:39.955Z,53.50
2023-04-05T18:45:07.916Z,53.30
2023-04-05T18:47:36.532Z,53.20
2023-04-05T18:50:03.904Z,53.30
2023-04-05T18:52:34.204Z,53.30
2023-04-05T18:55:01.512Z,52.80
2023-04-05T18:57:29.352Z,53.50
2023-04-05T18:59:57.654Z,54.10
2023-04-05T19:02:24.897Z,54.50
2023-04-05T19:04:54.809Z,54.60
2023-04-05T19:07:22.531Z,54.40
2023-04-05T19:09:49.454Z,54.40
2023-04-05T19:12:16.314Z,54.60
2023-04-05T19:14:43.194Z,54.80
2023-04-05T19:17:10.361Z,55.00
2023-04-05T19:19:37.167Z,55.10
2023-04-05T19:22:04.259Z,55.60
2023-04-05T19:24:31.112Z,55.90
2023-04-05T19:26:58.181Z,56.20
2023-04-05T19:29:25.166Z,56.50
2023-04-05T19:31:52.182Z,56.80
2023-04-05T19:34:19.461Z,56.80
2023-04-05T19:36:46.683Z,57.20
2023-04-05T19:39:13.606Z,57.50
2023-04-05T19:41:40.584Z,57.90
2023-04-05T19:44:11.195Z,58.10
2023-04-05T19:46:40.445Z,58.10
2023-04-05T19:49:11.773Z,58.20
2023-04-05T19:51:38.886Z,58.60
2023-04-05T19:54:12.534Z,58.80
2023-04-05T19:56:40.687Z,58.90
2023-04-05T19:59:07.590Z,59.20
2023-04-05T20:01:37.608Z,59.00
2023-04-05T20:04:16.198Z,59.20
2023-04-05T20:06:46.378Z,59.30
2023-04-05T20:09:18.089Z,59.30
2023-04-05T20:11:58.343Z,59.40
2023-04-05T20:14:31.404Z,59.60
2023-04-05T20:16:58.925Z,60.00
2023-04-05T20:19:30.750Z,60.40
2023-04-05T20:21:59.952Z,60.80
2023-04-05T20:24:29.417Z,60.80
2023-04-05T20:26:56.996Z,60.80
2023-04-05T20:29:28.764Z,60.80
2023-04-05T20:31:56.003Z,61.10
2023-04-05T20:34:32.517Z,61.40
2023-04-05T20:37:07.180Z,61.20
2023-04-05T20:39:35.200Z,61.30
2023-04-05T20:42:02.052Z,61.70
2023-04-05T20:44:28.968Z,61.90
2023-04-05T20:46:57.783Z,61.90
2023-04-05T20:49:26.232Z,62.00
2023-04-05T20:51:56.414Z,62.30
2023-04-05T20:54:24.294Z,62.20
2023-04-05T20:56:51.310Z,62.70
2023-04-05T20:59:18.188Z,62.70
2023-04-05T21:01:47.613Z,62.00
2023-04-05T21:04:15.180Z,61.90
2023-04-05T21:06:42.444Z,61.50
2023-04-05T21:09:09.952Z,61.00
2023-04-05T21:11:37.247Z,61.00
2023-04-05T21:14:04.158Z,61.00
2023-04-05T21:16:31.668Z,60.70
2023-04-05T21:18:58.550Z,61.20
2023-04-05T21:21:26.211Z,61.20
2023-04-05T21:23:53.254Z,61.20
2023-04-05T21:26:20.273Z,61.70
2023-04-05T21:28:47.206Z,62.00
2023-04-05T21:31:14.118Z,62.20
2023-04-05T21:33:42.059Z,61.80
2023-04-05T21:36:09.145Z,61.50
2023-04-05T21:38:36.275Z,62.10
2023-04-05T21:41:03.127Z,63.00
2023-04-05T21:43:30.034Z,63.20
2023-04-05T21:45:56.912Z,62.70
2023-04-05T21:48:24.955Z,63.00
2023-04-05T21:50:51.764Z,62.40
2023-04-05T21:53:18.920Z,62.30
2023-04-05T21:55:46.047Z,62.50
2023-04-05T21:58:13.035Z,62.50
2023-04-05T22:00:39.978Z,63.00
2023-04-05T22:03:07.172Z,63.10
2023-04-05T22:05:38.439Z,63.70
2023-04-05T22:08:07.205Z,64.30
2023-04-05T22:10:35.255Z,64.40
2023-04-05T22:13:02.166Z,64.90
2023-04-05T22:15:29.581Z,64.80
2023-04-05T22:17:56.718Z,65.30
2023-04-05T22:20:23.940Z,65.70
2023-04-05T22:22:52.991Z,65.60
2023-04-05T22:25:19.884Z,66.20
2023-04-05T22:27:46.843Z,66.60
2023-04-05T22:30:14.087Z,67.10
2023-04-05T22:32:41.265Z,67.20
2023-04-05T22:35:08.511Z,68.10
2023-04-05T22:37:36.649Z,68.50
2023-04-05T22:40:05.611Z,68.80
2023-04-05T22:42:32.437Z,69.30
2023-04-05T22:44:59.664Z,69.80
2023-04-05T22:47:27.223Z,70.70
2023-04-05T22:49:54.295Z,71.50
2023-04-05T22:52:21.463Z,72.30
2023-04-05T22:54:48.328Z,72.90
2023-04-05T22:57:15.648Z,73.90
2023-04-05T22:59:42.745Z,75.40
2023-04-05T23:02:10.239Z,76.90
2023-04-05T23:04:37.113Z,78.20
2023-04-05T23:07:04.067Z,79.60
2023-04-05T23:09:30.989Z,80.50
2023-04-05T23:11:57.871Z,82.10
2023-04-05T23:14:24.813Z,83.40
2023-04-05T23:16:51.680Z,84.60
2023-04-05T23:19:18.616Z,86.40
2023-04-05T23:21:45.453Z,87.60
2023-04-05T23:24:12.619Z,89.30
2023-04-05T23:26:39.506Z,89.90
2023-04-05T23:29:06.929Z,89.50
2023-04-05T23:31:34.300Z,90.90
2023-04-05T23:34:01.290Z,91.30
2023-04-05T23:36:28.900Z,91.80
2023-04-05T23:38:56.133Z,91.90
2023-04-05T23:41:23.103Z,92.10
2023-04-05T23:43:50.070Z,92.70
2023-04-05T23:46:17.139Z,92.70
2023-04-05T23:48:44.346Z,92.90
2023-04-05T23:51:11.323Z,92.50
2023-04-05T23:53:38.225Z,92.80
2023-04-05T23:56:05.271Z,94.20
2023-04-05T23:58:32.501Z,94.20
